Metar

SADR31 MDSD 202000Z
METAR
METAR MDPP 202000Z 07008KT 9999 FEW028 30/23 Q1009=
METAR MDST 202000Z 11008KT 9999 SCT025 34/21 Q1008=
METAR MDPC 202000Z 12008KT 050V130 9999 FEW028 29/22 Q1010=
METAR MDBH 202000Z 13010KT 9999 FEW016CB SCT018 SCT080 28/23 Q1008
CB/W/N=
METAR MDJB 202000Z 18010KT 9999 SCT020 32/23 Q1009 NOSIG=
METAR MDSD 202000Z 20008KT 9999 FEW022 30/23 Q1009=
METAR MDLR 202000Z 18012KT 9999 FEW020 30/25 Q1009 NOSIG=
METAR MDCY 202000Z 05010KT 9999 FEW024 29/26 Q1008=
METAR MDAB 202000Z 36006KT 9999 BKN020 30/26 Q1009=